Recent forum postings ...
Today
Change wake turbulence after filing FP
Yesterday
KLM-VA site "not responding", is my flight toast?
3 days ago
Fly KLM Mon CTL
2021-04-09
SCHEDULE FLIGHT BOEING 737
2021-04-08
Law and rules in KLM VA
2021-04-04
Flying a Tour.


 
Aircraft IdentFlightrulesType of Flight
NumberType of AircraftWake turbulenceEquipmentTransponder Type
Departure AerodromeDeparture Time
Cruising speedFlight level
Route




Destination AerodromeTotal EETAlternative Aerodrome
Other information

Explanation of the IVAO flightplan

Damascus Intl (OSDI), Syria

METAR
OSDI 081100Z 26005KT CAVOK 30/M03 Q1013

WINDW at 6 mph
VISIBILITYgreater than 7 miles
CONDITIONS
CLOUDSclear skies
TEMP86°F (30°C)
DEWPT27°F (-3°C)
HUMIDITY11%
BAROMETER1013 hPa (29.91 in Hg)

RUNWAYS

RunwayDesignatorSurfaceHeadingLengthWidthAltitudeILSILS-Freq.Glidescope Pitch
05RIGHTCONCRETE48.393558.24 ft45.11 ft615.7 ftCAT II ILS 05R111.13

King Khaled Intl (OERK), Saudi Arabia

METAR
OERK 081000Z 23006KT CAVOK 37/02 Q1014 NOSIG

WINDSW at 7 mph
VISIBILITYgreater than 7 miles
CONDITIONS
CLOUDSclear skies
TEMP99°F (37°C)
DEWPT36°F (2°C)
HUMIDITY11%
BAROMETER1014 hPa (29.94 in Hg)

RUNWAYS

RunwayDesignatorSurfaceHeadingLengthWidthAltitudeILSILS-Freq.Glidescope Pitch
15LEFTASPHALT150.134214.17 ft60.05 ft624.53 ftCAT II ILS/DME 15L109.53
15LEFTASPHALT150.134214.17 ft60.05 ft624.53 ftCAT III ILS/DME 33R109.13
15RIGHTASPHALT150.124215.08 ft60.05 ft624.53 ftCAT II ILS/DME 33L110.13
15RIGHTASPHALT150.124215.08 ft60.05 ft624.53 ftCAT III ILS/DME 15R110.53
Registration TimeGroundspeedAltitudeTransponderHeadingLongitudeLatitudeOn ground
11:09 08-04-20210 kts2030 ft200022736.515133.4111Yes
11:120 kts2030 ft200022736.515133.4111Yes
11:150 kts2030 ft200022736.515133.4111Yes
11:180 kts2030 ft200022736.515133.4111Yes
11:2121 kts2030 ft713614236.522733.4089Yes
11:24224 kts5399 ft713619136.441233.3414No
11:27330 kts12588 ft713617536.512533.1389No
11:30386 kts18015 ft713618036.554232.8371No
11:33421 kts23422 ft713618236.594132.5056No
11:36498 kts28843 ft713615536.743132.1509No
11:39512 kts32578 ft713615637.0131.7946No
11:42516 kts34068 ft713615037.274231.4315No
11:45507 kts35608 ft713612137.719231.2285No
11:48492 kts36958 ft713612338.156531.0512No
11:51481 kts36917 ft713612338.58130.8718No
11:54456 kts36766 ft713611838.987930.6976No
11:57446 kts36538 ft713611739.375330.5303No
12:00444 kts36615 ft713612839.749730.3473No